Terminal Aerodrome Forecast
Issued by NWS

Current Version | Previous Version | Graphics & Text | Print | Product List | Glossary On
Versions: 1 2 3 4 5 6 7 8 9 10 11 12 13 14 15 16 17 18 19 20 21 22 23
000
FTUS41 KILN 231400 AAA
TAFLUK
TAF AMD
KLUK 231457Z 2315/2412 00000KT P6SM SCT100 BKN150
     FM231700 14004KT P6SM SCT120
     FM232200 VRB02KT P6SM SCT100=

USA.gov is the U.S. government's official web portal to all federal, state and local government web resources and services.